Time;durP1;ratioP1;P1;durP2;ratioP2;P2;SDS_P1;SDS_P2;PMS_P1;PMS_P2;Temp;Humidity;BMP_temperature;BMP_pressure;BME280_temperature;BME280_humidity;BME280_pressure;Samples;Min_cycle;Max_cycle;Signal;HPM_P1;HPM_P2
2021/01/15 00:01:53;;;;;;;18.42;8.50;;;;;;;;;;4860765;24;20060;-92
2021/01/15 00:04:48;;;;;;;19.25;11.10;;;;;;;;;;4845573;29;20080;-92
2021/01/15 00:08:03;;;;;;;22.23;11.48;;;2.60;99.90;;;;;;4864913;29;20088;-93
2021/01/15 00:11:17;;;;;;;24.42;9.00;;;;;;;;;;4855126;29;20268;-92
2021/01/15 00:14:34;;;;;;;20.33;8.60;;;;;;;;;;4860093;29;20042;-94
2021/01/15 00:17:56;;;;;;;21.40;10.98;;;2.40;99.90;;;;;;4838700;29;20052;-92
2021/01/15 00:21:34;;;;;;;22.90;12.43;;;2.40;99.90;;;;;;4864338;29;20062;-93
2021/01/15 00:24:22;;;;;;;15.43;8.68;;;;;;;;;;4819348;29;20234;-93
2021/01/15 00:27:26;;;;;;;24.55;9.38;;;;;;;;;;4843782;29;20050;-93
2021/01/15 00:30:33;;;;;;;26.88;9.85;;;2.30;99.90;;;;;;4862515;29;20508;-91
2021/01/15 00:40:00;;;;;;;20.38;9.48;;;;;;;;;;5813875;23;20028;-94
2021/01/15 00:44:31;;;;;;;24.95;9.25;;;;;;;;;;4822857;29;20069;-94
2021/01/15 00:48:54;;;;;;;24.48;7.53;;;;;;;;;;4791562;30;20619;-94
2021/01/15 00:52:29;;;;;;;18.75;9.07;;;;;;;;;;4783905;29;20056;-94
2021/01/15 00:56:26;;;;;;;23.63;8.07;;;;;;;;;;4740369;30;20053;-94
2021/01/15 01:37:11;;;;;;;15.90;7.80;;;;;;;;;;4874657;29;20041;-94
2021/01/15 01:40:22;;;;;;;17.02;8.10;;;;;;;;;;4860604;29;20041;-95
2021/01/15 01:47:31;;;;;;;17.27;8.00;;;;;;;;;;4800618;29;20070;-95
2021/01/15 01:50:20;;;;;;;19.17;8.07;;;;;;;;;;4807669;29;20065;-93
2021/01/15 01:53:13;;;;;;;15.38;7.40;;;;;;;;;;4797480;29;20054;-94
2021/01/15 01:56:22;;;;;;;15.73;7.93;;;;;;;;;;4815836;23;20052;-94
2021/01/15 01:59:42;;;;;;;30.67;9.70;;;;;;;;;;4849106;29;20073;-94
2021/01/15 02:06:20;;;;;;;21.55;7.88;;;;;;;;;;4839530;29;20044;-93
2021/01/15 02:10:07;;;;;;;19.38;7.60;;;;;;;;;;4868238;23;20058;-93
2021/01/15 02:13:42;;;;;;;26.75;8.30;;;;;;;;;;4917172;24;20112;-94
2021/01/15 02:17:28;;;;;;;27.13;9.95;;;1.60;99.90;;;;;;4845458;29;20510;-92
2021/01/15 02:21:22;;;;;;;22.08;8.32;;;;;;;;;;4848804;29;20121;-94
2021/01/15 02:24:57;;;;;;;19.30;7.50;;;;;;;;;;4815175;24;20061;-94
2021/01/15 02:28:27;;;;;;;19.35;9.20;;;1.70;99.90;;;;;;4855802;24;20058;-93
2021/01/15 02:36:08;;;;;;;20.67;7.35;;;;;;;;;;4867772;24;20052;-94
2021/01/15 02:39:53;;;;;;;16.88;8.07;;;1.90;99.90;;;;;;4828388;29;20050;-94
2021/01/15 02:42:44;;;;;;;18.90;7.97;;;;;;;;;;4868851;24;20056;-95
2021/01/15 02:46:02;;;;;;;21.52;8.70;;;;;;;;;;4794786;29;20063;-94
2021/01/15 02:48:54;;;;;;;22.88;9.50;;;;;;;;;;4784757;30;20065;-95
2021/01/15 02:51:36;;;;;;;21.08;9.48;;;;;;;;;;4774180;30;20051;-95
2021/01/15 02:54:29;;;;;;;24.23;7.95;;;;;;;;;;4790591;30;20063;-95
2021/01/15 02:57:20;;;;;;;30.77;8.73;;;;;;;;;;4781114;30;20051;-95
2021/01/15 03:00:11;;;;;;;15.93;7.72;;;;;;;;;;4805406;30;20065;-95
2021/01/15 03:03:02;;;;;;;30.40;11.23;;;;;;;;;;4766035;30;20051;-95
2021/01/15 03:05:59;;;;;;;20.08;8.55;;;;;;;;;;4762799;30;20068;-95
2021/01/15 03:09:03;;;;;;;27.45;10.50;;;;;;;;;;4754168;30;20068;-95
2021/01/15 03:12:21;;;;;;;24.58;10.15;;;;;;;;;;4745280;30;20057;-94
2021/01/15 03:15:14;;;;;;;13.88;8.05;;;;;;;;;;4712926;30;20059;-94
2021/01/15 03:17:59;;;;;;;24.65;8.95;;;;;;;;;;4734802;30;20075;-94
2021/01/15 03:20:50;;;;;;;27.33;11.07;;;;;;;;;;4754042;30;20061;-94
2021/01/15 03:23:48;;;;;;;18.88;9.32;;;;;;;;;;4806498;29;20071;-95
2021/01/15 03:26:47;;;;;;;20.77;9.52;;;;;;;;;;4798301;29;20055;-95
2021/01/15 03:29:40;;;;;;;24.38;11.98;;;;;;;;;;4817018;29;20057;-94
2021/01/15 03:32:40;;;;;;;18.83;8.25;;;;;;;;;;4835246;29;20100;-94
2021/01/15 03:35:35;;;;;;;22.15;8.45;;;;;;;;;;4835990;29;20069;-94
2021/01/15 03:38:47;;;;;;;39.17;11.77;;;;;;;;;;4845871;29;20056;-93
2021/01/15 03:42:07;;;;;;;23.17;10.55;;;;;;;;;;4779875;29;20059;-93
2021/01/15 03:48:38;;;;;;;33.10;10.73;;;;;;;;;;4803351;29;20057;-95
2021/01/15 03:51:51;;;;;;;23.38;9.55;;;;;;;;;;4831585;29;20050;-95
2021/01/15 03:55:26;;;;;;;26.88;10.50;;;;;;;;;;4816702;29;20058;-95
2021/01/15 03:58:22;;;;;;;23.10;9.85;;;;;;;;;;4851758;24;20038;-95
2021/01/15 04:02:00;;;;;;;20.73;9.73;;;;;;;;;;4883765;29;20029;-95
2021/01/15 04:05:09;;;;;;;22.83;10.88;;;;;;;;;;4900576;29;20033;-95
2021/01/15 04:11:54;;;;;;;20.52;9.02;;;;;;;;;;4883070;29;20049;-95
2021/01/15 04:15:10;;;;;;;28.25;10.90;;;;;;;;;;4832799;29;20185;-95
2021/01/15 04:18:44;;;;;;;21.30;8.82;;;1.70;99.90;;;;;;4894978;29;20056;-92
2021/01/15 04:30:31;;;;;;;30.15;10.63;;;;;;;;;;4985097;24;20065;-96
2021/01/15 04:34:03;;;;;;;23.67;9.95;;;;;;;;;;5027902;24;20080;-95
2021/01/15 04:37:45;;;;;;;26.67;14.10;;;1.90;99.90;;;;;;4837005;29;20423;-95
2021/01/15 04:41:03;;;;;;;18.52;10.23;;;;;;;;;;4817072;29;20048;-95
2021/01/15 04:44:10;;;;;;;20.48;8.32;;;;;;;;;;4836110;29;20060;-95
2021/01/15 04:48:41;;;;;;;19.80;8.50;;;2.10;99.90;;;;;;4872919;29;20049;-95
2021/01/15 04:51:46;;;;;;;31.92;11.70;;;;;;;;;;4850017;29;20050;-95
2021/01/15 04:54:48;;;;;;;27.48;9.50;;;;;;;;;;4855480;29;20058;-96
2021/01/15 04:57:54;;;;;;;24.05;10.15;;;;;;;;;;4804802;29;20063;-94
2021/01/15 05:01:26;;;;;;;31.70;10.00;;;;;;;;;;4802377;29;20050;-96
2021/01/15 05:05:05;;;;;;;22.35;8.05;;;;;;;;;;4812705;29;20054;-94
2021/01/15 05:08:31;;;;;;;18.85;8.00;;;;;;;;;;4783463;29;20046;-96
2021/01/15 05:47:47;;;;;;;22.02;9.00;;;2.30;99.90;;;;;;4790690;30;20036;-95
2021/01/15 05:52:12;;;;;;;20.35;10.40;;;2.30;99.90;;;;;;4808460;29;20054;-96
2021/01/15 05:56:53;;;;;;;25.92;10.45;;;2.50;99.90;;;;;;4766358;30;20092;-95
2021/01/15 06:08:15;;;;;;;27.15;9.93;;;;;;;;;;4075025;23;20028;-95
2021/01/15 06:15:15;;;;;;;22.35;10.40;;;;;;;;;;4791472;29;20061;-94
2021/01/15 06:25:31;;;;;;;26.45;10.88;;;;;;;;;;5051353;24;20046;-96
2021/01/15 07:17:29;;;;;;;21.83;9.77;;;;;;;;;;4945351;24;20061;-96
2021/01/15 07:27:46;;;;;;;27.67;13.40;;;;;;;;;;4847210;29;20083;-92
2021/01/15 07:30:34;;;;;;;39.47;15.63;;;;;;;;;;4836772;29;20050;-91
2021/01/15 07:33:28;;;;;;;26.55;12.32;;;2.60;99.90;;;;;;4846574;29;20054;-88
2021/01/15 07:36:07;;;;;;;28.92;13.68;;;;;;;;;;4851127;29;20064;-93
2021/01/15 07:43:10;;;;;;;21.50;12.43;;;;;;;;;;4842906;29;20050;-93
2021/01/15 07:46:06;;;;;;;24.45;13.02;;;;;;;;;;4787925;30;20129;-95
2021/01/15 07:49:00;;;;;;;33.60;15.07;;;;;;;;;;4796564;30;20051;-93
2021/01/15 07:51:44;;;;;;;48.72;15.55;;;;;;;;;;4781721;30;20074;-94
2021/01/15 07:55:01;;;;;;;24.42;11.15;;;;;;;;;;4777545;30;20058;-94
2021/01/15 07:58:07;;;;;;;26.27;13.88;;;;;;;;;;4792618;30;20059;-94
2021/01/15 08:01:21;;;;;;;26.15;12.98;;;;;;;;;;4796247;30;20071;-93
2021/01/15 08:04:46;;;;;;;25.48;11.95;;;;;;;;;;4842759;24;20036;-93
2021/01/15 08:08:42;;;;;;;26.60;11.05;;;;;;;;;;5005459;24;20064;-93
2021/01/15 08:15:31;;;;;;;22.57;11.10;;;;;;;;;;4788823;30;20070;-93
2021/01/15 08:18:34;;;;;;;32.95;13.57;;;;;;;;;;4780081;30;20035;-94
2021/01/15 08:21:44;;;;;;;33.53;13.05;;;;;;;;;;4766269;30;20059;-93
2021/01/15 08:32:45;;;;;;;28.08;14.85;;;;;;;;;;4929733;24;20077;-92
2021/01/15 08:35:33;;;;;;;31.35;14.48;;;2.60;99.90;;;;;;4800218;29;20429;-93
2021/01/15 08:38:26;;;;;;;37.38;15.65;;;;;;;;;;4823928;29;20061;-93
2021/01/15 08:42:07;;;;;;;31.00;13.40;;;2.80;99.90;;;;;;4811521;29;20057;-94
2021/01/15 08:44:38;;;;;;;29.40;13.40;;;;;;;;;;4871298;24;20056;-94
2021/01/15 08:47:22;;;;;;;33.13;12.73;;;;;;;;;;4850336;29;20049;-94
2021/01/15 08:53:01;;;;;;;30.30;13.57;;;;;;;;;;4842500;29;20042;-94
2021/01/15 08:56:03;;;;;;;28.20;13.05;;;;;;;;;;4860526;29;20064;-94
2021/01/15 08:59:47;;;;;;;42.17;14.55;;;;;;;;;;4872393;29;20052;-94
2021/01/15 09:02:39;;;;;;;36.75;14.77;;;;;;;;;;4813656;29;20068;-93
2021/01/15 09:05:38;;;;;;;26.95;12.82;;;;;;;;;;4813967;29;20057;-95
2021/01/15 09:09:03;;;;;;;37.28;15.50;;;;;;;;;;4828879;29;20062;-94
2021/01/15 09:12:11;;;;;;;31.67;13.30;;;;;;;;;;4820046;29;20543;-94
2021/01/15 09:14:57;;;;;;;28.98;13.00;;;;;;;;;;4842957;24;21503;-93
2021/01/15 09:17:37;;;;;;;34.28;12.75;;;;;;;;;;4819097;29;20047;-93
2021/01/15 09:20:54;;;;;;;32.97;12.40;;;;;;;;;;4835641;29;20054;-93
2021/01/15 09:24:32;;;;;;;33.83;14.93;;;;;;;;;;4829245;29;20067;-92
2021/01/15 09:27:45;;;;;;;31.70;15.32;;;;;;;;;;4823959;29;20046;-94
2021/01/15 09:30:31;;;;;;;24.23;12.77;;;;;;;;;;4818018;29;20057;-92
2021/01/15 09:33:20;;;;;;;37.95;16.40;;;;;;;;;;4834261;29;20034;-92
2021/01/15 09:37:06;;;;;;;32.88;14.60;;;;;;;;;;4825486;29;20046;-93
2021/01/15 09:39:39;;;;;;;27.83;13.98;;;;;;;;;;4814792;29;20069;-93
2021/01/15 09:42:22;;;;;;;26.83;12.07;;;;;;;;;;4847295;24;20062;-92
2021/01/15 09:45:03;;;;;;;33.17;14.80;;;;;;;;;;4838091;29;20070;-92
2021/01/15 09:47:58;;;;;;;35.40;14.70;;;3.30;99.90;;;;;;4839932;29;20062;-91
2021/01/15 09:55:15;;;;;;;26.15;11.90;;;;;;;;;;4813821;29;20047;-94
2021/01/15 09:58:13;;;;;;;28.90;13.45;;;;;;;;;;4791954;29;20057;-94
2021/01/15 10:01:23;;;;;;;29.90;13.63;;;;;;;;;;4805715;29;20065;-92
2021/01/15 10:04:11;;;;;;;32.38;15.10;;;;;;;;;;4808108;29;20055;-92
2021/01/15 10:06:40;;;;;;;32.05;14.48;;;;;;;;;;4796941;29;20047;-92
2021/01/15 10:09:10;;;;;;;29.02;13.93;;;;;;;;;;4786167;29;20058;-92
2021/01/15 10:12:02;;;;;;;28.73;12.52;;;;;;;;;;4774874;29;20067;-91
2021/01/15 10:14:59;;;;;;;26.05;12.40;;;;;;;;;;4810899;29;20405;-91
2021/01/15 10:18:06;;;;;;;29.05;14.30;;;;;;;;;;4813897;29;20047;-93
2021/01/15 10:21:05;;;;;;;33.47;14.73;;;;;;;;;;4818788;29;20060;-93
2021/01/15 10:24:17;;;;;;;32.13;14.55;;;3.50;99.90;;;;;;4859254;24;20062;-93
2021/01/15 10:27:45;;;;;;;34.45;14.77;;;;;;;;;;4824574;29;20050;-93
2021/01/15 10:30:25;;;;;;;31.80;15.15;;;;;;;;;;4871995;24;20280;-92
2021/01/15 10:33:04;;;;;;;31.85;14.77;;;;;;;;;;4867412;24;20092;-91
2021/01/15 10:36:03;;;;;;;46.90;16.40;;;;;;;;;;4819157;29;20057;-91
2021/01/15 10:39:56;;;;;;;31.42;14.07;;;3.60;99.90;;;;;;4830380;24;20057;-93
2021/01/15 10:47:08;;;;;;;29.42;14.00;;;;;;;;;;4775631;29;20034;-93
2021/01/15 10:50:24;;;;;;;27.65;13.93;;;3.90;99.90;;;;;;4802004;29;20047;-91
2021/01/15 10:53:40;;;;;;;32.30;15.35;;;4.20;99.90;;;;;;4811129;29;20152;-92
2021/01/15 10:56:24;;;;;;;42.95;15.20;;;;;;;;;;4789432;29;20034;-91
2021/01/15 10:59:34;;;;;;;31.00;14.98;;;4.00;99.90;;;;;;4811560;29;20050;-92
2021/01/15 11:02:48;;;;;;;33.97;16.00;;;;;;;;;;4858188;24;20049;-92
2021/01/15 11:05:27;;;;;;;31.60;16.10;;;;;;;;;;4858791;29;20069;-91
2021/01/15 11:08:14;;;;;;;29.13;12.88;;;;;;;;;;4809728;29;20061;-90
2021/01/15 11:14:57;;;;;;;31.77;14.15;;;;;;;;;;4649158;27;20053;-92
2021/01/15 11:18:12;;;;;;;33.90;15.98;;;;;;;;;;4870767;29;20057;-93
2021/01/15 11:21:46;;;;;;;28.75;14.13;;;4.10;99.90;;;;;;4846029;24;20054;-92
2021/01/15 11:25:05;;;;;;;36.63;18.15;;;;;;;;;;4887700;24;20054;-92
2021/01/15 11:28:06;;;;;;;34.37;16.03;;;;;;;;;;4840996;29;20057;-92
2021/01/15 11:30:43;;;;;;;31.85;15.93;;;;;;;;;;4857971;29;20304;-93
2021/01/15 11:37:06;;;;;;;36.35;17.58;;;;;;;;;;4880071;24;20045;-92
2021/01/15 11:40:23;;;;;;;38.28;17.27;;;;;;;;;;4863659;29;20526;-92
2021/01/15 11:42:57;;;;;;;33.58;16.15;;;;;;;;;;4844840;29;20037;-91
2021/01/15 11:45:51;;;;;;;31.02;16.30;;;;;;;;;;4837315;24;20066;-92
2021/01/15 11:48:41;;;;;;;31.50;15.20;;;;;;;;;;4792696;30;20073;-91
2021/01/15 11:51:32;;;;;;;35.47;15.13;;;;;;;;;;4888041;24;20056;-93
2021/01/15 11:54:17;;;;;;;37.45;16.30;;;;;;;;;;4880212;29;20099;-92
2021/01/15 11:56:59;;;;;;;32.33;16.52;;;;;;;;;;4881269;29;20052;-92
2021/01/15 11:59:39;;;;;;;33.67;16.92;;;;;;;;;;4861260;29;20065;-92
2021/01/15 12:02:17;;;;;;;30.45;17.35;;;;;;;;;;4879870;29;20051;-93
2021/01/15 12:06:16;;;;;;;35.42;16.70;;;;;;;;;;4814910;27;20054;-92
2021/01/15 12:10:08;;;;;;;34.83;19.08;;;;;;;;;;4825098;29;20053;-93
2021/01/15 12:13:26;;;;;;;35.85;17.17;;;4.70;99.90;;;;;;4825146;29;20073;-92
2021/01/15 12:16:40;;;;;;;40.33;18.45;;;;;;;;;;4825428;29;20061;-94
2021/01/15 12:20:04;;;;;;;32.60;16.27;;;;;;;;;;4731499;30;20064;-92
2021/01/15 12:22:36;;;;;;;37.42;19.20;;;;;;;;;;4716390;30;20068;-95
2021/01/15 12:25:40;;;;;;;41.78;18.20;;;;;;;;;;4706920;30;20075;-93
2021/01/15 12:28:44;;;;;;;38.33;19.95;;;;;;;;;;4730597;24;20053;-93
2021/01/15 12:31:43;;;;;;;42.15;20.75;;;;;;;;;;4842200;29;20058;-92
2021/01/15 12:35:08;;;;;;;;;;;4.70;99.90;;;;;;4882058;24;20070;-91
2021/01/15 12:38:19;;;;;;;36.15;18.05;;;;;;;;;;4830066;29;19928;-91
2021/01/15 12:41:11;;;;;;;36.67;17.02;;;;;;;;;;4831479;29;20080;-92
2021/01/15 12:48:08;;;;;;;32.25;15.60;;;;;;;;;;4827361;27;20046;-93
2021/01/15 12:51:19;;;;;;;39.97;19.25;;;;;;;;;;4836386;29;20060;-93
2021/01/15 12:54:19;;;;;;;35.05;17.45;;;;;;;;;;4858855;29;20045;-94
2021/01/15 12:57:58;;;;;;;37.90;18.83;;;4.70;99.90;;;;;;4871320;29;20058;-92
2021/01/15 13:01:17;;;;;;;38.88;18.48;;;;;;;;;;4874309;29;20036;-92
2021/01/15 13:04:03;;;;;;;35.80;18.27;;;;;;;;;;5014922;24;20267;-93
2021/01/15 13:06:58;;;;;;;34.10;17.15;;;;;;;;;;4812258;29;20059;-93
2021/01/15 13:10:15;;;;;;;37.03;18.35;;;;;;;;;;4812040;29;20058;-93
2021/01/15 13:12:52;;;;;;;40.17;17.38;;;;;;;;;;4792576;29;20047;-95
2021/01/15 13:15:45;;;;;;;41.30;20.25;;;;;;;;;;4803309;29;20066;-95
2021/01/15 13:18:18;;;;;;;46.90;19.33;;;;;;;;;;4817865;29;20058;-93
2021/01/15 13:21:24;;;;;;;42.30;20.15;;;;;;;;;;4820106;29;20487;-94
2021/01/15 13:24:14;;;;;;;37.90;18.52;;;;;;;;;;4831840;29;20042;-93
2021/01/15 13:26:47;;;;;;;44.70;17.33;;;;;;;;;;4814270;29;20049;-93
2021/01/15 13:29:44;;;;;;;36.33;18.17;;;;;;;;;;4814608;29;20054;-93
2021/01/15 13:32:50;;;;;;;38.75;18.90;;;;;;;;;;4800140;29;20055;-94
2021/01/15 13:35:31;;;;;;;38.83;18.60;;;;;;;;;;4821836;29;20630;-92
2021/01/15 13:38:19;;;;;;;46.92;24.40;;;;;;;;;;4808471;29;20058;-94
2021/01/15 13:41:24;;;;;;;50.08;22.90;;;5.20;99.90;;;;;;4788281;29;20478;-92
2021/01/15 13:44:01;;;;;;;43.90;24.77;;;;;;;;;;4816321;29;20491;-93
2021/01/15 13:46:33;;;;;;;37.10;17.50;;;;;;;;;;4809609;29;20068;-92
2021/01/15 13:49:26;;;;;;;41.80;20.52;;;;;;;;;;4794603;29;20070;-93
2021/01/15 13:51:58;;;;;;;42.08;16.30;;;;;;;;;;4811239;29;20054;-95
2021/01/15 13:54:38;;;;;;;38.58;19.50;;;;;;;;;;4816259;29;20053;-93
2021/01/15 13:57:09;;;;;;;41.15;19.30;;;;;;;;;;4787530;29;20058;-94
2021/01/15 13:59:43;;;;;;;38.63;19.13;;;;;;;;;;4804680;29;20061;-95
2021/01/15 14:02:21;;;;;;;34.75;17.58;;;;;;;;;;4820925;29;20054;-93
2021/01/15 14:04:55;;;;;;;37.78;18.05;;;;;;;;;;4805842;29;20054;-94
2021/01/15 14:07:30;;;;;;;38.78;17.55;;;;;;;;;;4828614;29;20061;-93
2021/01/15 14:10:04;;;;;;;39.80;17.00;;;;;;;;;;4800917;29;20082;-93
2021/01/15 14:12:38;;;;;;;38.80;16.27;;;;;;;;;;4834921;24;20054;-94
2021/01/15 14:15:19;;;;;;;44.75;20.45;;;;;;;;;;4820854;29;20441;-94
2021/01/15 14:18:38;;;;;;;32.25;17.23;;;5.40;99.90;;;;;;4840417;29;20072;-93
2021/01/15 14:21:49;;;;;;;32.83;16.90;;;;;;;;;;4857800;29;20066;-93
2021/01/15 14:28:48;;;;;;;41.00;19.20;;;;;;;;;;4921220;24;20016;-92
2021/01/15 14:31:44;;;;;;;34.67;17.80;;;;;;;;;;4841158;29;20042;-92
2021/01/15 14:34:16;;;;;;;38.92;17.73;;;;;;;;;;4804288;29;20072;-93
2021/01/15 14:37:54;;;;;;;35.97;17.30;;;;;;;;;;4842746;29;20054;-92
2021/01/15 14:40:58;;;;;;;36.35;17.50;;;;;;;;;;4858171;24;20062;-92
2021/01/15 14:44:21;;;;;;;32.03;17.02;;;;;;;;;;4834491;29;20053;-92
2021/01/15 14:47:38;;;;;;;31.05;15.63;;;;;;;;;;4901823;24;20064;-93
2021/01/15 14:51:30;;;;;;;37.75;17.70;;;5.20;99.90;;;;;;4838674;29;20055;-94
2021/01/15 14:54:39;;;;;;;31.02;17.02;;;;;;;;;;4844851;29;20041;-94
2021/01/15 14:57:42;;;;;;;39.58;19.73;;;;;;;;;;4867759;29;20053;-93
2021/01/15 15:00:35;;;;;;;40.70;18.65;;;;;;;;;;4866277;29;20068;-95
2021/01/15 15:03:11;;;;;;;34.95;14.95;;;;;;;;;;4846805;29;20061;-87
2021/01/15 15:05:39;;;;;;;41.65;16.45;;;;;;;;;;4866883;29;20061;-91
2021/01/15 15:08:12;;;;;;;44.33;21.65;;;;;;;;;;4841231;29;20054;-90
2021/01/15 15:10:42;;;;;;;33.75;16.38;;;;;;;;;;4863918;29;20057;-91
2021/01/15 15:13:13;;;;;;;33.78;16.38;;;;;;;;;;4860850;29;20049;-90
2021/01/15 15:15:41;;;;;;;31.58;13.75;;;;;;;;;;4864730;29;20066;-89
2021/01/15 15:18:09;;;;;;;31.92;15.23;;;;;;;;;;4862588;29;20062;-87
2021/01/15 15:20:38;;;;;;;36.38;18.67;;;;;;;;;;4860763;29;20058;-91
2021/01/15 15:23:09;;;;;;;34.20;17.45;;;;;;;;;;4863005;29;20057;-89
2021/01/15 15:25:37;;;;;;;43.53;19.33;;;;;;;;;;4863754;29;20053;-91
2021/01/15 15:28:06;;;;;;;40.28;16.70;;;;;;;;;;4849103;29;20064;-87
2021/01/15 15:30:33;;;;;;;40.47;18.02;;;;;;;;;;4861375;29;20065;-92
2021/01/15 15:33:01;;;;;;;35.22;16.42;;;;;;;;;;4855098;29;20437;-91
2021/01/15 15:35:29;;;;;;;38.47;15.25;;;;;;;;;;4855597;29;20057;-90
2021/01/15 15:37:59;;;;;;;42.90;20.48;;;;;;;;;;4846067;29;20053;-89
2021/01/15 15:40:26;;;;;;;42.45;19.00;;;;;;;;;;4828790;29;20065;-88
2021/01/15 15:42:57;;;;;;;33.25;16.40;;;;;;;;;;4858251;29;20064;-89
2021/01/15 15:45:26;;;;;;;31.02;15.27;;;;;;;;;;4860939;29;20489;-90
2021/01/15 15:47:54;;;;;;;36.60;18.38;;;;;;;;;;4843890;29;20057;-88
2021/01/15 15:50:22;;;;;;;35.67;18.15;;;;;;;;;;4848457;29;20310;-91
2021/01/15 15:52:56;;;;;;;53.33;19.75;;;;;;;;;;4833234;29;20054;-91
2021/01/15 15:55:27;;;;;;;32.30;14.93;;;;;;;;;;4845865;29;20058;-90
2021/01/15 15:57:57;;;;;;;38.55;19.27;;;;;;;;;;4845241;29;20734;-91
2021/01/15 16:00:24;;;;;;;34.10;15.05;;;;;;;;;;4846661;29;20049;-87
2021/01/15 16:02:57;;;;;;;37.20;17.15;;;;;;;;;;4843485;29;20065;-86
2021/01/15 16:05:25;;;;;;;41.65;15.10;;;;;;;;;;4853856;29;20058;-92
2021/01/15 16:07:54;;;;;;;35.88;15.60;;;;;;;;;;4856567;29;20074;-90
2021/01/15 16:10:21;;;;;;;25.85;15.07;;;;;;;;;;4848282;29;20057;-89
2021/01/15 16:12:50;;;;;;;37.92;17.77;;;;;;;;;;4841593;29;20499;-89
2021/01/15 16:15:20;;;;;;;34.88;17.10;;;;;;;;;;4843403;29;20056;-89
2021/01/15 16:17:48;;;;;;;41.85;18.10;;;;;;;;;;4827839;29;20096;-90
2021/01/15 16:20:16;;;;;;;36.13;16.67;;;;;;;;;;4859320;29;20447;-85
2021/01/15 16:22:45;;;;;;;41.03;18.10;;;;;;;;;;4863800;29;20057;-86
2021/01/15 16:25:13;;;;;;;44.85;20.90;;;;;;;;;;4860790;29;20068;-87
2021/01/15 16:27:44;;;;;;;37.42;19.45;;;;;;;;;;4851042;29;20044;-91
2021/01/15 16:30:13;;;;;;;54.63;25.58;;;;;;;;;;4844941;29;20053;-86
2021/01/15 16:32:42;;;;;;;41.83;22.33;;;;;;;;;;4859809;29;20045;-91
2021/01/15 16:35:10;;;;;;;37.83;19.35;;;;;;;;;;4856421;29;20054;-90
2021/01/15 16:37:38;;;;;;;42.30;18.35;;;;;;;;;;4839974;29;20049;-90
2021/01/15 16:40:08;;;;;;;43.70;20.55;;;;;;;;;;4828335;29;20049;-88
2021/01/15 16:42:38;;;;;;;32.10;17.20;;;;;;;;;;4836814;29;20060;-86
2021/01/15 16:45:07;;;;;;;39.08;20.65;;;4.20;99.90;;;;;;4850030;29;20056;-88
2021/01/15 16:47:36;;;;;;;41.20;22.83;;;;;;;;;;4841604;29;20059;-87
2021/01/15 16:50:06;;;;;;;40.92;19.50;;;4.10;99.90;;;;;;4857516;29;20068;-87
2021/01/15 16:52:34;;;;;;;43.72;18.88;;;;;;;;;;4860665;29;20065;-88
2021/01/15 16:55:07;;;;;;;39.78;20.00;;;3.90;99.90;;;;;;4828489;29;20060;-89
2021/01/15 16:57:35;;;;;;;39.25;19.98;;;;;;;;;;4814120;29;20651;-91
2021/01/15 17:00:03;;;;;;;44.53;22.95;;;3.60;99.90;;;;;;4859002;29;20057;-89
2021/01/15 17:02:31;;;;;;;43.47;20.67;;;;;;;;;;4857640;29;20526;-86
2021/01/15 17:05:00;;;;;;;41.90;20.75;;;;;;;;;;4829786;29;20124;-88
2021/01/15 17:07:29;;;;;;;44.65;23.42;;;;;;;;;;4843991;29;20053;-89
2021/01/15 17:09:58;;;;;;;46.35;22.90;;;;;;;;;;4847186;29;20061;-90
2021/01/15 17:12:25;;;;;;;39.55;20.50;;;;;;;;;;4840228;29;20061;-87
2021/01/15 17:14:55;;;;;;;43.65;22.40;;;;;;;;;;4836116;29;20064;-86
2021/01/15 17:17:23;;;;;;;43.25;23.65;;;;;;;;;;4836987;29;20049;-88
2021/01/15 17:19:51;;;;;;;55.58;24.40;;;;;;;;;;4836923;29;20502;-87
2021/01/15 17:22:19;;;;;;;49.30;22.83;;;;;;;;;;4835785;29;20049;-88
2021/01/15 17:24:47;;;;;;;43.28;22.60;;;;;;;;;;4814981;29;20050;-89
2021/01/15 17:27:16;;;;;;;41.97;20.95;;;;;;;;;;4848808;29;20068;-88
2021/01/15 17:29:44;;;;;;;46.63;20.63;;;;;;;;;;4838763;29;20052;-89
2021/01/15 17:32:17;;;;;;;52.17;19.77;;;;;;;;;;4855385;29;20091;-88
2021/01/15 17:34:45;;;;;;;43.72;23.77;;;;;;;;;;4837316;29;20050;-86
2021/01/15 17:37:13;;;;;;;41.45;22.00;;;;;;;;;;4838468;29;20046;-89
2021/01/15 17:40:32;;;;;;;52.70;21.67;;;2.50;99.90;;;;;;4837181;29;20064;-89
2021/01/15 17:43:01;;;;;;;46.70;20.38;;;;;;;;;;4857564;29;20349;-89
2021/01/15 17:45:30;;;;;;;49.35;22.95;;;;;;;;;;4824864;29;20066;-89
2021/01/15 17:47:58;;;;;;;50.22;24.05;;;;;;;;;;4844333;29;20049;-89
2021/01/15 17:50:29;;;;;;;57.57;22.87;;;;;;;;;;4842628;29;20061;-89
2021/01/15 17:53:03;;;;;;;46.55;21.25;;;2.30;99.90;;;;;;4837363;29;20662;-88
2021/01/15 17:55:34;;;;;;;;;;;2.00;99.90;;;;;;4857224;29;20057;-89
2021/01/15 17:58:07;;;;;;;53.25;20.75;;;;;;;;;;4842019;29;19928;-88
2021/01/15 18:00:37;;;;;;;42.35;20.10;;;1.90;99.90;;;;;;4838616;29;20049;-91
2021/01/15 18:03:06;;;;;;;44.80;24.13;;;;;;;;;;4840103;29;20068;-88
2021/01/15 18:05:35;;;;;;;59.35;22.95;;;1.80;99.90;;;;;;4854809;29;20060;-87
2021/01/15 18:08:04;;;;;;;44.97;24.00;;;2.00;99.90;;;;;;4837220;29;20046;-87
2021/01/15 18:10:33;;;;;;;52.92;26.40;;;1.80;99.90;;;;;;4857090;29;20061;-89
2021/01/15 18:13:07;;;;;;;48.33;24.08;;;;;;;;;;4819422;29;20057;-87
2021/01/15 18:15:36;;;;;;;54.05;24.05;;;;;;;;;;4841862;29;20062;-85
2021/01/15 18:18:05;;;;;;;58.00;30.00;;;;;;;;;;4834919;29;20057;-86
2021/01/15 18:20:33;;;;;;;59.17;26.23;;;;;;;;;;4852322;29;20061;-86
2021/01/15 18:23:05;;;;;;;46.30;23.67;;;;;;;;;;4818237;29;20498;-91
2021/01/15 18:25:34;;;;;;;58.95;26.88;;;1.70;99.90;;;;;;4842760;29;20256;-88
2021/01/15 18:28:02;;;;;;;51.05;25.92;;;;;;;;;;4843477;29;20061;-88
2021/01/15 18:30:29;;;;;;;44.03;23.92;;;;;;;;;;4804965;29;20061;-88
2021/01/15 18:32:58;;;;;;;48.28;26.83;;;;;;;;;;4839233;29;20064;-88
2021/01/15 18:35:27;;;;;;;50.88;26.30;;;1.60;99.90;;;;;;4847882;29;20821;-87
2021/01/15 18:37:56;;;;;;;44.90;25.02;;;1.40;99.90;;;;;;4854230;29;20069;-89
2021/01/15 18:40:24;;;;;;;55.03;28.30;;;;;;;;;;4844407;29;20057;-92
2021/01/15 18:42:53;;;;;;;56.35;28.75;;;;;;;;;;4852908;29;20060;-87
2021/01/15 18:45:22;;;;;;;60.50;32.25;;;;;;;;;;4845009;29;20045;-88
2021/01/15 18:47:52;;;;;;;54.03;24.95;;;;;;;;;;4854828;29;20445;-87
2021/01/15 18:50:21;;;;;;;50.50;26.42;;;1.50;99.90;;;;;;4844482;29;20062;-88
2021/01/15 18:52:50;;;;;;;52.92;27.83;;;;;;;;;;4846130;29;20054;-87
2021/01/15 18:55:22;;;;;;;49.72;24.63;;;;;;;;;;4845582;29;20053;-86
2021/01/15 18:57:53;;;;;;;58.22;28.27;;;;;;;;;;4862813;29;20069;-88
2021/01/15 19:00:22;;;;;;;53.10;24.13;;;;;;;;;;4864545;29;20060;-92
2021/01/15 19:02:51;;;;;;;47.17;22.35;;;1.20;99.90;;;;;;4865984;29;20049;-87
2021/01/15 19:05:21;;;;;;;43.92;25.73;;;;;;;;;;4834123;29;20058;-88
2021/01/15 19:07:51;;;;;;;54.45;26.92;;;;;;;;;;4869477;29;20068;-87
2021/01/15 19:10:22;;;;;;;52.70;26.15;;;;;;;;;;4873513;29;20065;-86
2021/01/15 19:12:55;;;;;;;53.58;26.30;;;;;;;;;;4857950;29;20054;-86
2021/01/15 19:15:33;;;;;;;52.70;24.05;;;;;;;;;;4875488;29;20060;-88
2021/01/15 19:18:08;;;;;;;63.00;27.00;;;;;;;;;;4869816;29;20640;-89
2021/01/15 19:20:42;;;;;;;51.90;26.10;;;0.90;99.90;;;;;;4851679;29;20057;-89
2021/01/15 19:23:14;;;;;;;60.78;27.48;;;;;;;;;;4849930;29;20065;-87
2021/01/15 19:25:50;;;;;;;61.13;28.42;;;;;;;;;;4853439;29;20046;-88
2021/01/15 19:28:26;;;;;;;54.92;28.52;;;0.80;99.90;;;;;;4855315;29;20052;-88
2021/01/15 19:30:57;;;;;;;48.65;25.63;;;;;;;;;;4869583;29;20053;-88
2021/01/15 19:33:26;;;;;;;48.17;26.52;;;;;;;;;;4852302;29;20057;-90
2021/01/15 19:35:57;;;;;;;63.92;27.50;;;;;;;;;;4868697;29;20065;-87
2021/01/15 19:38:27;;;;;;;53.15;28.38;;;;;;;;;;4852299;29;20056;-89
2021/01/15 19:40:55;;;;;;;57.92;27.13;;;;;;;;;;4870941;29;20056;-89
2021/01/15 19:43:24;;;;;;;49.33;25.60;;;;;;;;;;4848872;29;20045;-89
2021/01/15 19:45:53;;;;;;;73.22;33.88;;;;;;;;;;4867991;29;20073;-88
2021/01/15 19:48:22;;;;;;;64.47;31.00;;;;;;;;;;4869284;29;20068;-89
2021/01/15 19:50:50;;;;;;;61.83;29.13;;;;;;;;;;4848755;29;20445;-89
2021/01/15 19:53:21;;;;;;;60.03;29.38;;;0.70;99.90;;;;;;4864254;29;20058;-86
2021/01/15 19:55:51;;;;;;;55.42;26.40;;;;;;;;;;4835620;29;20670;-88
2021/01/15 19:58:25;;;;;;;64.18;30.45;;;0.50;99.90;;;;;;4863101;29;20053;-90
2021/01/15 20:00:55;;;;;;;66.22;31.55;;;0.60;99.90;;;;;;4834947;29;20050;-90
2021/01/15 20:03:23;;;;;;;57.40;30.40;;;;;;;;;;4865146;29;20074;-89
2021/01/15 20:05:52;;;;;;;62.20;31.58;;;;;;;;;;4866090;29;20064;-88
2021/01/15 20:08:20;;;;;;;80.53;31.35;;;;;;;;;;4867671;29;20060;-87
2021/01/15 20:10:48;;;;;;;65.28;29.48;;;;;;;;;;4858512;29;20060;-89
2021/01/15 20:13:17;;;;;;;59.38;31.00;;;;;;;;;;4845802;29;20058;-89
2021/01/15 20:15:48;;;;;;;51.35;30.13;;;;;;;;;;4869585;29;20065;-89